Hlavní strana
METAR-TAF:

METAR-TAF

Letiště :

Letiště Odense

Odense, Dánsko

zeměpisná šířka: 55-29N, zeměpisná délka: 010-20E, výška: 17 m

Aktuální stav počasí

Zpráva byla vytvořena před 38 minutami, v 06:50 UTC
Západoseverozápadní vítr 19 kt
Teplota 10°C
Vlhkost vzduchu 76%
Tlak 1019 hPa
Viditelnost 10 km a více
Skoro jasno ve výšce 3000 ft

METAR: EKOD 240650Z 30019KT 9999 FEW030 10/06 Q1019

Čas: 09:28 (07:28 UTC)

Předpověď počasí

Zpráva byla vytvořena před 31 minutami, v 06:57 UTC
Předpověď platná od 24 v 07 UTC do 24 v 15 UTC
Západoseverozápadní vítr 15 kt
Viditelnost 10 km a více
Polojasno ve výšce 3000 ft
Dočasný
od 24 v 09 UTC do 24 v 15 UTC
Severozápadní vítr 20 kt s nárazy do 30 kt
Polojasno ve výšce 3000 ft, Cumulonimbus.

TAF: EKOD 240657Z 2407/2415 30015KT 9999 SCT030 TEMPO 2409/2415 31020G30KT SCT030CB

Stav a předpovědi počasí z více než 4 000 letišť (zprávy METAR a TAF).

Červené a žluté tečky na mapě představují dostupné meteorologické stanice.

Když kurzor umístíte na tečku, zobrazí se název stanice.

Pak kliknutím zobrazíte stav a předpověď počasí.

Chcete-li změnit mapu, kliknutím na zelené tlačítko se znaménkem +mapu přiblížíte, kliknutím na zelené tlačítko se znaménkem – mapu oddálíte a kliknutím na zelené šipky přejdete na sousední mapy.


METAR-TAF: